WMSA/SZB METAR and TAF weather

Enter ICAO airport designator
Station Type Date Time Source
WMSA METAR 2020/07/10 16:00 UTC NOAA

WMSA 101600Z VRB02KT 9999 FEW017CB 26/25 Q1011


Station Type Date Time Source
WMSA Decoded METAR 2020/07/10 16:00 UTC NOAA

Subang/Sultan Abdul Aziz Shah Airport, Malaysia (WMSA) 03-07N 101-32E
Jul 10, 2020 - 12:00 PM EDT / 2020.07.10 1600 UTC
Wind: Variable at 2 MPH (2 KT):0
Visibility: greater than 7 mile(s):0
Sky conditions: mostly clear
Weather: Cumulonimbus clouds observed
Temperature: 78 F (26 C)
Dew Point: 77 F (25 C)
Relative Humidity: 94%
Pressure (altimeter): 29.85 in. Hg (1011 hPa)
ob: WMSA 101600Z VRB02KT 9999 FEW017CB 26/25 Q1011
cycle: 16

Station Type Date Time Source
WMSA TAF 2020/07/10 12:09 UTC NOAA

TAF WMSA 101100Z 1012/1112 VRB02KT 9999 FEW026
BECMG 1100/1101 14005KT FEW018

Example: see airport list